Time;durP1;ratioP1;P1;durP2;ratioP2;P2;SDS_P1;SDS_P2;PMS_P1;PMS_P2;Temp;Humidity;BMP_temperature;BMP_pressure;BME280_temperature;BME280_humidity;BME280_pressure;Samples;Min_cycle;Max_cycle;Signal;HPM_P1;HPM_P2
2023/05/10 00:01:43;;;;;;;2.93;2.70;;;10.50;99.90;;;10.47;79.13;95213.38;5042561;28;20483;-63
2023/05/10 00:04:10;;;;;;;5.93;4.30;;;10.50;99.90;;;10.43;78.98;95210.19;5047677;28;20551;-61
2023/05/10 00:06:38;;;;;;;4.03;2.60;;;10.40;99.90;;;10.37;79.76;95206.28;5046323;28;20459;-60
2023/05/10 00:09:05;;;;;;;2.37;2.23;;;10.40;99.90;;;10.34;79.33;95198.66;5040284;28;20471;-63
2023/05/10 00:11:34;;;;;;;3.60;3.20;;;10.40;99.90;;;10.29;79.54;95208.69;5038477;28;20449;-64
2023/05/10 00:14:01;;;;;;;3.30;3.00;;;10.30;99.90;;;10.26;79.37;95198.44;5027947;28;20502;-60
2023/05/10 00:16:28;;;;;;;4.60;4.17;;;10.30;99.90;;;10.24;79.54;95195.13;5038804;28;20942;-60
2023/05/10 00:18:55;;;;;;;3.50;3.30;;;10.30;99.90;;;10.22;79.39;95195.25;5039085;28;20542;-60
2023/05/10 00:21:23;;;;;;;3.83;3.53;;;10.20;99.90;;;10.22;79.64;95194.41;5033172;28;20494;-65
2023/05/10 00:23:50;;;;;;;4.10;3.90;;;10.20;99.90;;;10.20;79.46;95204.22;5037750;28;20999;-64
2023/05/10 00:26:17;;;;;;;5.67;5.17;;;10.20;99.90;;;10.18;78.98;95199.09;5039750;28;20457;-59
2023/05/10 00:28:46;;;;;;;4.27;4.03;;;10.20;99.90;;;10.16;79.12;95194.91;5037230;28;20468;-63
2023/05/10 00:31:14;;;;;;;7.20;4.90;;;10.20;99.90;;;10.13;78.89;95196.03;5035804;28;20550;-63
2023/05/10 00:33:41;;;;;;;4.80;4.40;;;10.20;99.90;;;10.14;79.09;95196.84;5040548;28;20525;-60
2023/05/10 00:36:09;;;;;;;4.57;4.27;;;10.10;99.90;;;10.11;78.87;95192.66;5038111;28;20456;-64
2023/05/10 00:38:36;;;;;;;37.83;5.17;;;10.10;99.90;;;10.09;78.90;95199.03;5038378;28;20490;-61
2023/05/10 00:41:04;;;;;;;5.70;5.20;;;10.10;99.90;;;10.07;78.50;95185.16;5034862;28;20449;-63
2023/05/10 00:43:31;;;;;;;5.03;4.63;;;10.10;99.90;;;10.02;79.33;95183.78;5037144;28;21041;-59
2023/05/10 00:46:00;;;;;;;5.17;4.80;;;10.10;99.90;;;10.01;78.95;95190.00;5034874;28;20514;-61
2023/05/10 00:48:27;;;;;;;4.63;4.33;;;10.00;99.90;;;9.96;78.98;95205.31;5035848;28;20547;-59
2023/05/10 00:50:55;;;;;;;6.50;4.80;;;10.00;99.90;;;9.90;79.05;95183.94;5035646;28;20456;-61
2023/05/10 00:53:22;;;;;;;4.57;4.27;;;10.00;99.90;;;9.88;78.81;95189.34;5036727;28;21019;-60
2023/05/10 00:55:50;;;;;;;5.63;5.23;;;9.90;99.90;;;9.86;79.07;95178.13;5039649;28;20456;-59
2023/05/10 00:58:18;;;;;;;6.53;6.03;;;9.90;99.90;;;9.84;79.57;95180.88;5041631;28;20475;-64
2023/05/10 01:00:45;;;;;;;7.73;6.17;;;9.90;99.90;;;9.83;79.77;95178.38;5034611;28;20464;-64
2023/05/10 01:03:14;;;;;;;5.90;5.50;;;9.90;99.90;;;9.82;79.28;95177.56;5037552;28;20815;-60
2023/05/10 01:05:41;;;;;;;6.23;5.73;;;9.90;99.90;;;9.83;79.17;95178.38;5035161;28;20460;-61
2023/05/10 01:08:09;;;;;;;6.47;5.87;;;9.80;99.90;;;9.82;79.15;95176.72;5037984;28;20475;-65
2023/05/10 01:10:36;;;;;;;6.30;5.70;;;9.80;99.90;;;9.79;79.32;95176.97;5039836;28;20510;-60
2023/05/10 01:13:04;;;;;;;5.83;5.43;;;9.80;99.90;;;9.78;79.20;95186.66;5034273;28;20491;-60
2023/05/10 01:15:31;;;;;;;7.37;6.77;;;9.80;99.90;;;9.78;79.25;95176.13;5035288;28;21056;-60
2023/05/10 01:17:58;;;;;;;5.57;5.10;;;9.80;99.90;;;9.75;79.51;95176.41;5036140;28;20480;-63
2023/05/10 01:20:28;;;;;;;6.07;5.50;;;9.80;99.90;;;9.75;79.39;95171.16;5035115;28;21324;-62
2023/05/10 01:23:27;;;;;;;6.10;5.60;;;9.80;99.90;;;9.73;79.55;95178.31;5035182;28;20479;-63
2023/05/10 01:26:37;;;;;;;6.40;5.80;;;9.80;99.90;;;9.71;79.38;95163.66;5028994;28;20570;-64
2023/05/10 01:29:20;;;;;;;5.43;5.03;;;9.70;99.90;;;9.67;79.28;95156.00;5027337;28;20905;-64
2023/05/10 01:32:28;;;;;;;6.60;5.93;;;9.70;99.90;;;9.65;79.50;95164.97;5033141;28;20543;-64
2023/05/10 01:35:01;;;;;;;6.60;4.07;;;9.70;99.90;;;9.62;79.09;95159.97;5030933;28;20484;-64
2023/05/10 01:37:35;;;;;;;5.50;5.10;;;9.70;99.90;;;9.57;79.28;95156.91;5031458;28;20559;-63
2023/05/10 01:40:06;;;;;;;5.20;4.80;;;9.60;99.90;;;9.54;79.43;95155.34;5036046;28;20966;-58
2023/05/10 01:42:38;;;;;;;6.10;5.50;;;9.60;99.90;;;9.53;79.45;95151.09;5030403;28;20488;-60
2023/05/10 01:45:14;;;;;;;5.60;5.10;;;9.60;99.90;;;9.51;79.58;95148.59;5032531;28;20453;-60
2023/05/10 01:47:44;;;;;;;4.83;4.53;;;9.60;99.90;;;9.51;79.42;95142.47;5034260;28;20613;-63
2023/05/10 01:50:18;;;;;;;5.37;4.93;;;9.60;99.90;;;9.50;79.44;95148.72;5035420;28;20456;-64
2023/05/10 01:52:52;;;;;;;5.63;5.13;;;9.50;99.90;;;9.50;79.36;95146.91;5032171;28;20487;-64
2023/05/10 01:55:21;;;;;;;5.50;4.93;;;9.60;99.90;;;9.50;79.53;95146.09;5032870;28;20473;-61
2023/05/10 01:57:49;;;;;;;5.17;4.77;;;9.60;99.90;;;9.50;78.99;95151.34;5031855;28;21005;-64
2023/05/10 02:00:16;;;;;;;5.07;4.67;;;9.50;99.90;;;9.49;79.33;95154.91;5039601;28;20460;-65
2023/05/10 02:02:47;;;;;;;3.97;3.77;;;9.50;99.90;;;9.48;78.96;95145.34;5033269;28;20547;-63
2023/05/10 02:05:15;;;;;;;4.93;4.50;;;9.50;99.90;;;9.47;79.22;95146.34;5027351;28;20468;-59
2023/05/10 02:07:43;;;;;;;4.27;4.03;;;9.50;99.90;;;9.47;78.66;95154.22;5034280;28;20834;-63
2023/05/10 02:10:11;;;;;;;3.97;3.67;;;9.50;99.90;;;9.48;78.91;95153.22;5036661;28;20994;-60
2023/05/10 02:12:42;;;;;;;5.43;4.07;;;9.50;99.90;;;9.47;79.02;95148.97;5030331;28;20487;-60
2023/05/10 02:15:09;;;;;;;5.53;4.53;;;9.50;99.90;;;9.47;79.05;95146.34;5033834;28;20480;-61
2023/05/10 02:17:37;;;;;;;4.80;4.50;;;9.50;99.90;;;9.49;78.77;95154.91;5033655;28;20558;-59
2023/05/10 02:20:07;;;;;;;4.03;3.83;;;9.50;99.90;;;9.50;78.65;95146.09;5036827;28;20447;-63
2023/05/10 02:22:35;;;;;;;4.40;4.10;;;9.50;99.90;;;9.49;78.52;95149.66;5031238;28;20484;-59
2023/05/10 02:25:02;;;;;;;4.60;4.20;;;9.50;99.90;;;9.46;78.54;95142.03;5033522;28;20948;-63
2023/05/10 02:27:29;;;;;;;6.43;4.40;;;9.50;99.90;;;9.45;78.39;95142.97;5035140;28;21101;-64
2023/05/10 02:29:57;;;;;;;4.13;3.83;;;9.50;99.90;;;9.43;78.56;95144.91;5035111;28;20523;-64
2023/05/10 02:32:24;;;;;;;3.87;3.67;;;9.50;99.90;;;9.38;78.23;95144.47;5036867;28;20491;-58
2023/05/10 02:34:51;;;;;;;3.40;3.20;;;9.40;99.90;;;9.35;77.98;95140.28;5038341;28;20541;-64
2023/05/10 02:37:20;;;;;;;3.67;3.40;;;9.40;99.90;;;9.30;77.37;95150.34;5036377;28;20499;-61
2023/05/10 02:39:48;;;;;;;3.27;3.07;;;9.40;99.90;;;9.25;77.22;95144.59;5032832;28;20479;-64
2023/05/10 02:42:17;;;;;;;4.60;4.30;;;9.30;99.90;;;9.20;77.35;95139.78;5036768;28;20523;-60
2023/05/10 02:44:45;;;;;;;4.47;4.07;;;9.30;99.90;;;9.15;76.88;95137.50;5032834;28;20453;-63
2023/05/10 02:47:12;;;;;;;4.10;3.67;;;9.20;99.90;;;9.10;76.59;95142.28;5035593;28;20470;-64
2023/05/10 02:49:40;;;;;;;4.23;3.97;;;9.20;99.90;;;9.06;76.41;95147.91;5036088;28;20463;-59
2023/05/10 02:52:08;;;;;;;4.37;3.70;;;9.20;99.90;;;9.00;76.30;95148.41;5035129;28;20476;-59
2023/05/10 02:54:42;;;;;;;4.10;3.67;;;9.10;99.90;;;8.93;75.43;95143.63;5035112;28;20493;-60
2023/05/10 02:57:09;;;;;;;4.50;3.80;;;9.00;99.90;;;8.85;75.31;95156.53;5031409;28;20834;-61
2023/05/10 02:59:36;;;;;;;4.93;3.80;;;9.00;99.90;;;8.80;75.32;95148.22;5033167;28;20461;-59
2023/05/10 03:02:04;;;;;;;6.33;4.57;;;8.90;99.90;;;8.74;74.47;95148.69;5031118;28;20460;-64
2023/05/10 03:04:31;;;;;;;5.37;3.33;;;8.80;99.90;;;8.69;74.48;95146.44;5033554;28;20459;-63
2023/05/10 03:06:58;;;;;;;7.73;3.77;;;8.80;99.90;;;8.66;74.10;95144.06;5030434;28;21479;-65
2023/05/10 03:09:26;;;;;;;4.10;3.90;;;8.80;99.90;;;8.63;74.59;95151.31;5032961;28;21031;-63
2023/05/10 03:12:01;;;;;;;2.70;2.60;;;8.70;99.90;;;8.63;73.94;95164.44;5033911;28;20906;-65
2023/05/10 03:14:45;;;;;;;5.20;3.73;;;8.70;99.90;;;8.57;73.50;95144.78;5033875;28;20572;-59
2023/05/10 03:17:15;;;;;;;3.23;2.93;;;8.70;99.90;;;8.56;73.13;95153.59;5032455;28;20475;-65
2023/05/10 03:19:49;;;;;;;4.20;3.90;;;8.70;99.90;;;8.54;73.21;95164.22;5035709;28;20460;-64
2023/05/10 03:22:20;;;;;;;5.67;4.30;;;8.70;99.90;;;8.53;73.82;95159.91;5032722;28;20475;-65
2023/05/10 03:24:47;;;;;;;4.97;4.57;;;8.60;99.90;;;8.53;73.49;95153.84;5032334;28;20959;-60
2023/05/10 03:27:16;;;;;;;7.93;4.20;;;8.60;99.90;;;8.53;73.95;95167.78;5030469;28;20488;-65
2023/05/10 03:29:44;;;;;;;43.10;24.37;;;8.60;99.90;;;8.56;73.81;95166.72;5033767;28;20509;-63
2023/05/10 03:32:11;;;;;;;8.00;5.77;;;8.60;99.90;;;8.58;74.22;95157.78;5038610;28;21024;-65
2023/05/10 03:34:43;;;;;;;11.43;7.30;;;8.60;99.90;;;8.60;73.90;95166.34;5033317;28;20488;-64
2023/05/10 03:37:10;;;;;;;13.73;9.40;;;8.70;99.90;;;8.61;73.52;95164.56;5028484;28;20851;-63
2023/05/10 03:39:37;;;;;;;6.97;5.67;;;8.70;99.90;;;8.60;73.62;95166.34;5032790;28;20881;-64
2023/05/10 03:42:05;;;;;;;29.53;15.40;;;8.70;99.90;;;8.59;73.84;95169.09;5032451;28;21135;-60
2023/05/10 03:44:34;;;;;;;5.37;4.50;;;8.70;99.90;;;8.59;73.84;95175.16;5031670;28;20476;-68
2023/05/10 03:47:01;;;;;;;4.73;4.27;;;8.70;99.90;;;8.60;73.64;95170.78;5031699;28;20460;-60
2023/05/10 03:49:29;;;;;;;6.20;4.27;;;8.70;99.90;;;8.59;72.68;95166.47;5034493;28;20463;-68
2023/05/10 03:51:56;;;;;;;5.63;4.10;;;8.70;99.90;;;8.57;72.97;95169.22;5027464;28;20471;-65
2023/05/10 03:54:23;;;;;;;5.33;4.50;;;8.60;99.90;;;8.54;73.20;95164.22;5038726;28;20492;-65
2023/05/10 03:56:51;;;;;;;4.67;4.03;;;8.60;99.90;;;8.55;72.85;95181.63;5038994;28;20982;-59
2023/05/10 03:59:18;;;;;;;11.27;4.77;;;8.60;99.90;;;8.54;72.74;95185.19;5034288;28;20475;-58
2023/05/10 04:01:47;;;;;;;4.83;4.43;;;8.60;99.90;;;8.53;72.71;95180.88;5037878;28;20451;-66
2023/05/10 04:04:14;;;;;;;4.30;4.00;;;8.60;99.90;;;8.52;72.70;95192.34;5038416;28;20460;-59
2023/05/10 04:06:41;;;;;;;4.63;4.23;;;8.60;99.90;;;8.50;72.73;95188.97;5040673;28;20451;-65
2023/05/10 04:09:09;;;;;;;7.00;4.97;;;8.60;99.90;;;8.50;73.07;95199.47;5042603;28;20489;-60
2023/05/10 04:11:36;;;;;;;13.73;4.50;;;8.60;99.90;;;8.49;73.03;95192.56;5042614;28;20452;-68
2023/05/10 04:14:03;;;;;;;4.90;4.43;;;8.60;99.90;;;8.52;73.56;95194.97;5039084;28;20491;-67
2023/05/10 04:16:30;;;;;;;5.33;4.63;;;8.60;99.90;;;8.53;73.10;95193.16;5039935;28;20470;-66
2023/05/10 04:18:59;;;;;;;5.33;4.87;;;8.60;99.90;;;8.54;73.11;95193.03;5035955;28;20472;-59
2023/05/10 04:21:26;;;;;;;6.20;3.90;;;8.60;99.90;;;8.54;72.96;95200.09;5033066;28;20462;-58
2023/05/10 04:23:54;;;;;;;18.60;11.60;;;8.60;99.90;;;8.54;73.06;95189.59;5037211;28;20468;-66
2023/05/10 04:26:21;;;;;;;7.97;4.33;;;8.60;99.90;;;8.54;73.39;95193.03;5039112;28;21048;-67
2023/05/10 04:28:49;;;;;;;7.13;4.70;;;8.60;99.90;;;8.57;72.94;95195.44;5035423;28;20488;-68
2023/05/10 04:31:17;;;;;;;5.90;4.07;;;8.60;99.90;;;8.60;73.09;95205.69;5038333;28;20899;-58
2023/05/10 04:33:44;;;;;;;5.10;4.60;;;8.70;99.90;;;8.61;72.59;95201.25;5037072;28;20563;-59
2023/05/10 04:36:13;;;;;;;4.70;4.30;;;8.70;99.90;;;8.63;72.65;95203.75;5030525;28;20454;-59
2023/05/10 04:38:40;;;;;;;4.40;3.70;;;8.70;99.90;;;8.65;72.38;95197.44;5033316;28;20861;-58
2023/05/10 04:41:08;;;;;;;32.13;4.53;;;8.70;99.90;;;8.67;72.39;95194.72;5038152;28;20479;-65
2023/05/10 04:43:35;;;;;;;6.60;3.70;;;8.70;99.90;;;8.66;72.57;95199.13;5035867;28;20507;-56
2023/05/10 04:46:03;;;;;;;5.90;4.37;;;8.70;99.90;;;8.63;71.98;95202.00;5032883;28;20749;-56
2023/05/10 04:48:30;;;;;;;3.93;3.57;;;8.70;99.90;;;8.58;71.99;95202.34;5034325;28;20473;-59
2023/05/10 04:50:57;;;;;;;7.67;4.10;;;8.70;99.90;;;8.57;72.29;95216.41;5028213;28;20448;-64
2023/05/10 04:53:26;;;;;;;7.03;4.27;;;8.70;99.90;;;8.54;72.58;95206.16;5032151;28;20484;-64
2023/05/10 04:55:53;;;;;;;5.83;5.13;;;8.60;99.90;;;8.53;72.99;95201.84;5031597;28;20558;-57
2023/05/10 04:58:21;;;;;;;4.83;4.40;;;8.60;99.90;;;8.56;73.10;95198.16;5032260;28;20578;-58
2023/05/10 05:00:48;;;;;;;4.93;4.43;;;8.60;99.90;;;8.59;72.41;95204.00;5036464;28;21064;-59
2023/05/10 05:03:16;;;;;;;5.80;5.03;;;8.70;99.90;;;8.61;72.88;95204.72;5037131;28;20468;-58
2023/05/10 05:05:43;;;;;;;6.03;4.87;;;8.70;99.90;;;8.61;72.84;95209.97;5033955;28;20456;-66
2023/05/10 05:08:10;;;;;;;4.57;4.17;;;8.70;99.90;;;8.63;72.78;95219.50;5038522;28;20867;-60
2023/05/10 05:10:39;;;;;;;9.63;5.07;;;8.70;99.90;;;8.65;72.72;95202.69;5038892;28;20452;-64
2023/05/10 05:13:06;;;;;;;5.30;4.80;;;8.80;99.90;;;8.70;73.04;95208.41;5031927;28;20468;-65
2023/05/10 05:15:33;;;;;;;5.03;3.97;;;8.80;99.90;;;8.73;72.72;95196.84;5037654;28;20496;-58
2023/05/10 05:18:01;;;;;;;6.17;5.57;;;8.80;99.90;;;8.76;73.02;95199.22;5031894;28;20972;-59
2023/05/10 05:20:28;;;;;;;7.20;4.33;;;8.80;99.90;;;8.79;72.85;95219.97;5036226;28;20456;-59
2023/05/10 05:22:55;;;;;;;10.07;5.40;;;8.90;99.90;;;8.82;72.32;95211.88;5039156;28;20472;-58
2023/05/10 05:25:23;;;;;;;8.50;5.83;;;8.90;99.90;;;8.86;73.03;95210.69;5037418;28;20924;-58
2023/05/10 05:27:52;;;;;;;6.07;5.47;;;8.90;99.90;;;8.90;72.32;95217.34;5037218;28;20479;-66
2023/05/10 05:30:19;;;;;;;6.30;5.60;;;9.00;99.90;;;8.92;72.38;95220.69;5036926;28;20455;-58
2023/05/10 05:32:47;;;;;;;6.57;5.90;;;9.00;99.90;;;8.93;72.58;95209.22;5035299;28;20821;-65
2023/05/10 05:35:15;;;;;;;11.53;5.30;;;9.00;99.90;;;8.94;72.85;95218.78;5040777;28;21047;-64
2023/05/10 05:37:43;;;;;;;6.80;5.13;;;9.00;99.90;;;8.96;72.17;95221.28;5040078;28;20502;-58
2023/05/10 05:40:13;;;;;;;10.23;5.67;;;9.00;99.90;;;8.94;72.29;95228.44;5036402;28;20522;-65
2023/05/10 05:42:41;;;;;;;7.60;5.93;;;9.00;99.90;;;8.93;72.28;95224.97;5037898;28;20461;-59
2023/05/10 05:45:12;;;;;;;6.83;5.87;;;9.00;99.90;;;8.95;72.55;95230.09;5037663;28;20463;-57
2023/05/10 05:47:40;;;;;;;11.43;5.97;;;9.00;99.90;;;8.94;72.79;95229.25;5036252;28;20547;-58
2023/05/10 05:50:08;;;;;;;7.73;5.40;;;9.00;99.90;;;8.94;72.55;95229.25;5038037;28;20463;-58
2023/05/10 05:52:35;;;;;;;7.67;5.63;;;9.00;99.90;;;8.94;72.87;95229.25;5034516;28;20890;-59
2023/05/10 05:55:03;;;;;;;5.57;5.17;;;9.00;99.90;;;8.94;72.65;95231.88;5036606;28;20492;-65
2023/05/10 05:57:30;;;;;;;6.43;5.43;;;9.00;99.90;;;8.96;72.92;95235.22;5036606;28;20464;-57
2023/05/10 05:59:58;;;;;;;6.53;5.93;;;9.00;99.90;;;8.99;73.12;95235.94;5036338;28;20459;-60
2023/05/10 06:02:26;;;;;;;9.50;7.27;;;9.10;99.90;;;9.04;73.24;95239.84;5036377;28;20483;-59
2023/05/10 06:04:54;;;;;;;5.83;5.33;;;9.10;99.90;;;9.08;72.71;95246.53;5036378;28;20464;-65
2023/05/10 06:07:21;;;;;;;13.13;6.60;;;9.10;99.90;;;9.07;72.82;95228.28;5036024;28;20463;-66
2023/05/10 06:09:48;;;;;;;7.33;5.90;;;9.10;99.90;;;9.08;72.40;95240.47;5037371;28;21018;-64
2023/05/10 06:12:15;;;;;;;10.40;5.80;;;9.10;99.90;;;9.09;72.49;95252.63;5036709;28;20474;-65
2023/05/10 06:14:43;;;;;;;7.03;6.43;;;9.10;99.90;;;9.07;73.24;95246.66;5037527;28;20574;-59
2023/05/10 06:17:10;;;;;;;6.80;6.03;;;9.10;99.90;;;9.06;72.86;95247.59;5036719;28;20886;-65
2023/05/10 06:19:39;;;;;;;6.03;5.53;;;9.20;99.90;;;9.07;73.03;95239.63;5035588;28;20460;-59
2023/05/10 06:22:06;;;;;;;6.93;5.57;;;9.20;99.90;;;9.08;73.07;95248.34;5037026;28;20444;-58
2023/05/10 06:24:33;;;;;;;6.87;6.17;;;9.10;99.90;;;9.08;72.68;95240.47;5035453;28;20460;-65
2023/05/10 06:27:01;;;;;;;6.50;5.90;;;9.20;99.90;;;9.10;72.60;95243.78;5036554;28;20449;-65
2023/05/10 06:29:29;;;;;;;9.87;6.63;;;9.20;99.90;;;9.10;72.41;95238.53;5034649;28;21028;-57
2023/05/10 06:31:56;;;;;;;9.20;5.80;;;9.20;99.90;;;9.13;72.38;95239.13;5035249;28;20457;-65
2023/05/10 06:34:23;;;;;;;11.60;5.90;;;9.20;99.90;;;9.13;72.42;95243.56;5029663;28;20448;-59
2023/05/10 06:36:52;;;;;;;10.67;6.97;;;9.20;99.90;;;9.17;72.43;95249.38;5037769;28;20570;-59
2023/05/10 06:39:20;;;;;;;10.93;6.00;;;9.20;99.90;;;9.20;72.40;95249.13;5034332;28;20727;-58
2023/05/10 06:41:47;;;;;;;7.87;5.97;;;9.30;99.90;;;9.23;72.55;95256.78;5036686;28;20455;-59
2023/05/10 06:44:14;;;;;;;11.13;5.90;;;9.30;99.90;;;9.25;71.97;95255.69;5034451;28;20452;-59
2023/05/10 06:46:42;;;;;;;5.10;4.63;;;9.30;99.90;;;9.27;72.11;95260.81;5031720;28;20460;-64
2023/05/10 06:49:09;;;;;;;7.70;5.63;;;9.30;99.90;;;9.26;71.73;95254.72;5037917;28;20575;-65
2023/05/10 06:51:36;;;;;;;7.60;6.23;;;9.30;99.90;;;9.27;71.65;95260.81;5033717;28;20452;-65
2023/05/10 06:54:05;;;;;;;5.67;5.10;;;9.40;99.90;;;9.29;71.62;95264.16;5036757;28;20480;-59
2023/05/10 06:56:32;;;;;;;16.40;6.30;;;9.40;99.90;;;9.32;71.23;95258.66;5036193;28;21033;-59
2023/05/10 06:58:59;;;;;;;6.83;5.77;;;9.40;99.90;;;9.36;71.18;95262.72;5034434;28;20523;-65
2023/05/10 07:01:27;;;;;;;6.20;5.60;;;9.40;99.90;;;9.40;71.13;95266.75;5037141;28;20456;-59
2023/05/10 07:03:54;;;;;;;10.60;6.37;;;9.50;99.90;;;9.43;70.81;95261.25;5031426;28;20491;-65
2023/05/10 07:06:21;;;;;;;10.93;5.63;;;9.50;99.90;;;9.44;71.07;95256.84;5034882;28;20955;-59
2023/05/10 07:08:49;;;;;;;5.70;5.10;;;9.50;99.90;;;9.46;70.90;95265.44;5037113;28;20575;-65
2023/05/10 07:11:17;;;;;;;7.87;5.50;;;9.50;99.90;;;9.47;70.56;95264.47;5034300;28;20558;-59
2023/05/10 07:13:46;;;;;;;7.93;5.97;;;9.50;99.90;;;9.49;70.65;95259.94;5036241;28;20497;-65
2023/05/10 07:16:13;;;;;;;6.80;6.00;;;9.50;99.90;;;9.50;70.87;95265.06;5034602;28;20744;-59
2023/05/10 07:18:41;;;;;;;7.00;6.23;;;9.60;99.90;;;9.54;70.77;95276.13;5036688;28;20857;-59
2023/05/10 07:21:08;;;;;;;7.93;6.03;;;9.60;99.90;;;9.55;70.47;95267.31;5035875;28;20971;-57
2023/05/10 07:23:35;;;;;;;13.37;6.60;;;9.60;99.90;;;9.58;70.45;95269.69;5035080;28;20564;-60
2023/05/10 07:26:03;;;;;;;7.53;6.30;;;9.60;99.90;;;9.61;70.52;95273.88;5040105;28;20451;-58
2023/05/10 07:28:31;;;;;;;7.83;5.93;;;9.70;99.90;;;9.62;70.31;95268.50;5030890;28;20531;-66
2023/05/10 07:30:59;;;;;;;12.23;5.80;;;9.70;99.90;;;9.67;70.29;95265.50;5034730;28;20625;-58
2023/05/10 07:33:26;;;;;;;8.93;5.57;;;9.70;99.90;;;9.73;70.08;95272.03;5036774;28;20487;-66
2023/05/10 07:35:53;;;;;;;8.90;5.47;;;9.80;99.90;;;9.74;69.86;95286.84;5037735;28;20496;-60
2023/05/10 07:38:21;;;;;;;7.30;6.60;;;9.80;99.90;;;9.78;69.28;95270.72;5034027;28;20471;-65
2023/05/10 07:40:48;;;;;;;6.33;5.50;;;9.80;99.90;;;9.77;69.50;95270.84;5032159;28;20440;-58
2023/05/10 07:43:15;;;;;;;5.80;5.23;;;9.80;99.90;;;9.79;69.23;95276.78;5036595;28;20503;-65
2023/05/10 07:45:44;;;;;;;6.53;5.93;;;9.90;99.90;;;9.80;68.39;95279.28;5040500;28;20455;-58
2023/05/10 07:48:11;;;;;;;6.10;5.60;;;9.90;99.90;;;9.81;68.53;95275.72;5038716;28;20463;-64
2023/05/10 07:50:39;;;;;;;7.37;6.27;;;9.90;99.90;;;9.82;68.22;95279.16;5037470;28;20448;-58
2023/05/10 07:53:06;;;;;;;6.57;5.80;;;9.90;99.90;;;9.84;67.90;95285.16;5038712;28;20567;-65
2023/05/10 07:55:33;;;;;;;9.83;7.27;;;9.90;99.90;;;9.85;68.08;95281.53;5035220;28;20590;-59
2023/05/10 07:58:01;;;;;;;5.90;5.43;;;9.90;99.90;;;9.87;68.08;95274.38;5039089;28;20477;-59
2023/05/10 08:00:29;;;;;;;14.30;6.07;;;9.90;99.90;;;9.90;67.73;95279.41;5039986;28;20525;-59
2023/05/10 08:02:57;;;;;;;7.93;7.20;;;10.00;99.90;;;9.96;67.99;95268.38;5037400;28;20480;-59
2023/05/10 08:05:25;;;;;;;7.37;5.30;;;10.00;99.90;;;10.07;67.74;95293.78;5037750;28;20451;-65
2023/05/10 08:07:52;;;;;;;8.10;7.03;;;10.10;99.90;;;10.10;67.28;95276.91;5036730;28;20475;-58
2023/05/10 08:10:19;;;;;;;11.33;6.60;;;10.10;99.90;;;10.12;67.22;95282.88;5037020;28;20540;-58
2023/05/10 08:12:47;;;;;;;12.13;7.17;;;10.20;99.90;;;10.16;67.74;95279.03;5036950;28;21018;-59
2023/05/10 08:15:14;;;;;;;9.47;6.97;;;10.20;99.90;;;10.23;67.33;95281.00;5038880;28;20500;-60
2023/05/10 08:17:42;;;;;;;7.40;6.03;;;10.30;99.90;;;10.30;66.82;95291.03;5035654;28;20469;-65
2023/05/10 08:20:12;;;;;;;7.60;6.73;;;10.30;99.90;;;10.34;67.09;95276.69;5036979;28;20452;-58
2023/05/10 08:22:39;;;;;;;7.20;6.60;;;10.40;99.90;;;10.44;67.10;95279.38;5038851;28;20508;-64
2023/05/10 08:25:08;;;;;;;9.23;6.60;;;10.50;99.90;;;10.54;67.10;95290.81;5035915;28;20459;-64
2023/05/10 08:27:35;;;;;;;9.63;6.87;;;10.60;99.90;;;10.64;66.75;95288.22;5035718;28;20864;-65
2023/05/10 08:30:02;;;;;;;7.90;6.90;;;10.60;99.90;;;10.76;66.75;95281.91;5037542;28;20453;-59
2023/05/10 08:32:30;;;;;;;7.27;6.57;;;10.70;99.90;;;10.86;66.37;95285.44;5036957;28;20471;-66
2023/05/10 08:34:57;;;;;;;8.43;6.37;;;10.80;99.90;;;10.90;65.42;95304.44;5037878;28;20929;-64
2023/05/10 08:37:26;;;;;;;12.90;6.00;;;10.90;99.90;;;10.92;65.56;95284.06;5039372;28;20471;-65
2023/05/10 08:39:53;;;;;;;6.90;6.20;;;11.00;99.90;;;10.91;65.73;95277.97;5035180;28;20851;-63
2023/05/10 08:42:21;;;;;;;16.90;7.97;;;11.00;99.90;;;10.91;65.59;95296.41;5037869;28;20483;-58
2023/05/10 08:44:48;;;;;;;11.67;6.30;;;11.00;99.90;;;10.92;65.95;95286.69;5038243;28;20474;-58
2023/05/10 08:47:17;;;;;;;6.90;6.40;;;11.00;99.90;;;10.92;65.90;95291.97;5037616;28;20468;-65
2023/05/10 08:49:45;;;;;;;9.43;6.57;;;11.00;99.90;;;10.94;65.86;95282.97;5038794;28;20460;-59
2023/05/10 08:52:12;;;;;;;9.03;7.07;;;11.00;99.90;;;10.93;65.91;95286.56;5038939;28;20462;-58
2023/05/10 08:54:41;;;;;;;6.43;5.90;;;11.00;99.90;;;10.92;65.81;95284.06;5037589;28;20470;-60
2023/05/10 08:57:08;;;;;;;6.43;5.83;;;11.00;99.90;;;10.93;65.79;95289.19;5038933;28;20492;-63
2023/05/10 08:59:35;;;;;;;8.33;6.07;;;11.00;99.90;;;10.98;65.89;95288.81;5036192;28;20452;-58
2023/05/10 09:02:02;;;;;;;6.73;6.07;;;11.00;99.90;;;10.99;65.88;95279.94;5041369;28;20979;-65
2023/05/10 09:04:30;;;;;;;16.70;6.90;;;11.00;99.90;;;11.05;65.83;95286.50;5037564;28;20448;-64
2023/05/10 09:06:57;;;;;;;7.10;6.40;;;11.10;99.90;;;11.09;65.71;95280.84;5037430;28;20452;-58
2023/05/10 09:09:24;;;;;;;6.37;5.77;;;11.10;99.90;;;11.15;65.32;95297.06;5036941;28;20455;-59
2023/05/10 09:11:53;;;;;;;6.13;5.53;;;11.20;99.90;;;11.12;64.76;95275.31;5036568;28;20460;-64
2023/05/10 09:14:20;;;;;;;7.03;6.40;;;11.20;99.90;;;11.09;64.92;95283.47;5038084;28;20456;-65
2023/05/10 09:16:48;;;;;;;7.53;5.90;;;11.20;99.90;;;11.10;65.02;95285.13;5039007;28;20514;-63
2023/05/10 09:19:15;;;;;;;6.93;6.17;;;11.10;99.90;;;11.12;65.18;95287.63;5035208;28;20480;-64
2023/05/10 09:21:43;;;;;;;7.53;6.60;;;11.20;99.90;;;11.17;65.06;95287.22;5039066;28;20458;-64
2023/05/10 09:24:10;;;;;;;7.20;6.60;;;11.20;99.90;;;11.18;65.20;95288.91;5036903;28;20526;-64
2023/05/10 09:26:40;;;;;;;9.30;7.13;;;11.20;99.90;;;11.20;65.21;95290.44;5036574;28;21297;-60
2023/05/10 09:29:09;;;;;;;9.63;6.00;;;11.20;99.90;;;11.23;64.47;95295.44;5037791;28;21806;-58
2023/05/10 09:31:47;;;;;;;6.57;6.10;;;11.30;99.90;;;11.24;64.50;95285.72;5037642;28;20453;-58
2023/05/10 09:34:18;;;;;;;7.53;6.20;;;11.30;99.90;;;11.25;64.34;95279.50;5034920;28;20525;-58
2023/05/10 09:36:56;;;;;;;10.40;7.37;;;11.30;99.90;;;11.23;64.35;95287.53;5031371;28;20563;-64
2023/05/10 09:39:34;;;;;;;20.93;6.30;;;11.30;99.90;;;11.25;64.28;95276.88;5038282;28;20558;-58
2023/05/10 09:42:04;;;;;;;9.73;7.07;;;11.30;99.90;;;11.34;64.42;95281.34;5035227;28;20499;-63
2023/05/10 09:44:33;;;;;;;7.10;6.47;;;11.30;99.90;;;11.43;64.01;95270.00;5038152;28;20886;-58
2023/05/10 09:47:00;;;;;;;13.20;7.87;;;11.50;99.90;;;11.56;64.01;95268.91;5038032;28;20527;-58
2023/05/10 09:49:28;;;;;;;8.17;7.37;;;11.60;99.90;;;11.64;64.16;95266.41;5032131;28;20453;-65
2023/05/10 09:52:03;;;;;;;9.17;6.53;;;11.70;99.90;;;11.70;63.45;95265.88;5038849;28;20497;-57
2023/05/10 09:54:30;;;;;;;6.40;5.80;;;11.70;99.90;;;11.69;62.91;95274.75;5030857;28;20466;-64
2023/05/10 09:56:58;;;;;;;7.80;7.00;;;11.80;99.90;;;11.72;63.78;95263.94;5039460;28;20495;-64
2023/05/10 09:59:27;;;;;;;7.17;6.57;;;11.80;99.90;;;11.84;63.35;95254.09;5036254;28;20944;-58
2023/05/10 10:01:57;;;;;;;12.23;7.10;;;11.80;99.90;;;11.95;63.44;95251.34;5036018;28;21069;-65
2023/05/10 10:04:24;;;;;;;10.90;6.37;;;11.90;99.90;;;12.11;63.17;95257.88;5036417;28;20533;-64
2023/05/10 10:07:01;;;;;;;7.00;6.30;;;12.10;99.90;;;12.19;62.58;95260.63;5035516;28;20456;-64
2023/05/10 10:09:28;;;;;;;7.80;6.97;;;12.20;99.90;;;12.18;62.07;95257.16;5031315;28;20487;-58
2023/05/10 10:11:56;;;;;;;9.20;6.50;;;12.20;99.90;;;12.17;62.15;95266.03;5035334;28;20540;-59
2023/05/10 10:14:23;;;;;;;10.90;7.67;;;12.20;99.90;;;12.11;61.66;95242.88;5036766;28;20460;-65
2023/05/10 10:16:51;;;;;;;9.50;6.10;;;12.20;99.90;;;12.07;62.00;95246.78;5036132;28;21396;-64
2023/05/10 10:19:20;;;;;;;5.83;5.33;;;12.10;99.90;;;12.05;61.57;95266.34;5035956;28;20457;-64
2023/05/10 10:21:48;;;;;;;9.23;6.00;;;12.10;99.80;;;12.01;62.06;95242.06;5037199;28;20448;-59
2023/05/10 10:24:15;;;;;;;9.57;6.37;;;12.10;99.90;;;12.01;61.87;95248.16;5037537;28;20452;-65
2023/05/10 10:26:43;;;;;;;15.17;7.63;;;12.10;99.90;;;12.02;61.85;95248.97;5034479;28;20472;-62
2023/05/10 10:29:20;;;;;;;11.27;7.33;;;12.10;99.90;;;12.08;62.30;95258.97;5036622;28;20885;-58
2023/05/10 10:31:53;;;;;;;13.70;7.00;;;12.10;99.90;;;12.11;61.51;95253.41;5031347;28;20453;-64
2023/05/10 10:34:27;;;;;;;7.50;6.80;;;12.10;99.90;;;12.11;61.94;95252.59;5035201;28;20436;-58